Time;durP1;ratioP1;P1;durP2;ratioP2;P2;SDS_P1;SDS_P2;PMS_P1;PMS_P2;Temp;Humidity;BMP_temperature;BMP_pressure;BME280_temperature;BME280_humidity;BME280_pressure;Samples;Min_cycle;Max_cycle;Signal;HPM_P1;HPM_P2
2022/06/01 00:02:37;;;;;;;17.55;11.55;;;;;;;21.30;65.60;100600.72;4975218;28;20054;-62
2022/06/01 00:05:22;;;;;;;19.23;12.45;;;;;;;21.19;65.78;100592.41;4975646;28;20038;-62
2022/06/01 00:08:07;;;;;;;17.80;11.73;;;;;;;21.15;66.08;100594.38;4975068;28;20039;-63
2022/06/01 00:10:53;;;;;;;16.17;11.23;;;;;;;21.12;65.98;100592.34;4973080;28;20042;-63
2022/06/01 00:13:38;;;;;;;14.43;11.23;;;;;;;21.12;65.66;100586.03;4975624;28;20395;-62
2022/06/01 00:16:24;;;;;;;16.98;10.32;;;;;;;20.98;66.22;100585.97;4978714;28;20403;-63
2022/06/01 00:19:12;;;;;;;20.05;10.38;;;;;;;20.88;66.05;100582.75;4974764;28;20490;-63
2022/06/01 00:22:12;;;;;;;18.77;10.25;;;;;;;20.66;66.49;100581.09;4971388;28;20039;-62
2022/06/01 00:24:57;;;;;;;16.02;9.60;;;;;;;20.59;66.73;100586.56;4973408;28;20487;-63
2022/06/01 00:27:42;;;;;;;21.13;9.45;;;;;;;20.64;66.75;100585.41;4970143;28;20054;-62
2022/06/01 00:30:27;;;;;;;17.17;9.73;;;;;;;20.64;66.33;100583.44;4972757;28;20062;-62
2022/06/01 00:33:12;;;;;;;13.00;8.88;;;;;;;20.59;66.00;100574.72;4975406;28;20525;-62
2022/06/01 00:35:57;;;;;;;15.27;9.63;;;;;;;20.52;65.21;100578.22;4974527;28;20062;-62
2022/06/01 00:38:42;;;;;;;11.35;9.10;;;;;;;20.40;65.53;100582.13;4976407;28;20045;-62
2022/06/01 00:41:29;;;;;;;16.52;9.38;;;;;;;20.34;66.00;100580.88;4973108;28;20050;-62
2022/06/01 00:44:14;;;;;;;13.52;9.57;;;;;;;20.36;66.11;100578.53;4976673;28;20078;-62
2022/06/01 00:46:59;;;;;;;27.92;8.50;;;;;;;20.39;65.85;100571.44;4975880;28;20045;-62
2022/06/01 00:49:48;;;;;;;16.75;9.93;;;;;;;20.33;66.13;100578.50;4974571;28;20038;-63
2022/06/01 00:52:36;;;;;;;17.15;9.05;;;;;;;20.30;65.71;100576.47;4967622;28;20403;-63
2022/06/01 00:55:29;;;;;;;31.45;9.90;;;;;;;20.29;65.54;100580.41;4973715;28;20045;-63
2022/06/01 00:58:20;;;;;;;15.98;8.93;;;;;;;20.22;65.23;100578.38;4974667;28;20233;-62
2022/06/01 01:01:11;;;;;;;15.07;9.63;;;;;;;20.18;64.79;100583.09;4972257;28;20505;-63
2022/06/01 01:03:58;;;;;;;19.17;9.25;;;;;;;20.14;63.86;100574.00;4970053;28;20069;-63
2022/06/01 01:06:43;;;;;;;16.05;9.00;;;;;;;20.03;63.84;100576.69;4971610;28;20049;-63
2022/06/01 01:09:29;;;;;;;15.43;8.38;;;;;;;19.95;64.43;100575.03;4974504;28;20059;-63
2022/06/01 01:12:14;;;;;;;16.55;8.25;;;;;;;20.00;63.85;100576.66;4972256;28;20050;-63
2022/06/01 01:15:01;;;;;;;19.92;8.85;;;;;;;20.03;63.71;100584.16;4968165;28;20576;-63
2022/06/01 01:17:49;;;;;;;14.23;9.20;;;;;;;20.00;63.46;100576.66;4973576;28;20053;-63
2022/06/01 01:20:42;;;;;;;12.50;8.30;;;;;;;19.97;63.57;100582.94;4973097;28;20053;-62
2022/06/01 01:23:45;;;;;;;12.68;8.75;;;;;;;19.92;63.36;100580.50;4966659;28;20042;-63
2022/06/01 01:26:32;;;;;;;12.80;8.75;;;;;;;19.95;63.56;100586.09;4972697;28;20529;-63
2022/06/01 01:29:39;;;;;;;11.00;8.10;;;;;;;19.96;63.24;100584.13;4974334;28;20050;-63
2022/06/01 01:32:24;;;;;;;12.95;8.60;;;;;;;19.91;63.09;100585.25;4973395;28;20066;-63
2022/06/01 01:35:09;;;;;;;15.40;8.75;;;;;;;19.89;63.25;100581.28;4969910;28;20034;-62
2022/06/01 01:37:57;;;;;;;12.38;7.75;;;;;;;19.90;63.25;100583.69;4967720;28;20070;-62
2022/06/01 01:40:42;;;;;;;11.77;8.50;;;;;;;19.86;63.12;100585.59;4977450;28;20034;-63
2022/06/01 01:43:27;;;;;;;21.40;8.40;;;;;;;19.89;62.93;100589.56;4973221;28;20054;-63
2022/06/01 01:46:12;;;;;;;12.68;8.23;;;;;;;19.87;63.00;100594.66;4972512;28;20066;-63
2022/06/01 01:48:58;;;;;;;12.88;7.82;;;;;;;19.82;63.42;100587.53;4973755;28;20066;-63
2022/06/01 01:51:43;;;;;;;19.73;9.27;;;;;;;19.82;63.57;100592.25;4973181;28;20046;-62
2022/06/01 01:54:37;;;;;;;15.07;8.02;;;;;;;19.83;63.20;100599.38;4973077;28;20050;-62
2022/06/01 01:57:34;;;;;;;12.95;7.85;;;;;;;19.75;63.09;100592.22;4972990;28;20042;-62
2022/06/01 02:00:28;;;;;;;16.83;8.95;;;;;;;19.67;63.47;100591.34;4976314;28;20058;-63
2022/06/01 02:03:17;;;;;;;20.50;9.35;;;;;;;19.61;63.74;100590.88;4974425;28;20038;-63
2022/06/01 02:06:25;;;;;;;20.17;9.05;;;;;;;19.66;63.66;100586.22;4974020;28;20046;-63
2022/06/01 02:09:13;;;;;;;17.13;7.88;;;;;;;19.66;63.75;100583.47;4969638;28;20046;-63
2022/06/01 02:15:02;;;;;;;10.23;8.13;;;;;;;19.56;64.21;100585.72;4967685;28;20034;-63
2022/06/01 02:17:52;;;;;;;18.73;8.10;;;;;;;19.52;63.71;100587.63;4970667;28;20049;-63
2022/06/01 02:20:49;;;;;;;20.52;8.88;;;;;;;19.58;63.67;100588.88;4977428;28;20956;-62
2022/06/01 02:23:35;;;;;;;12.20;8.10;;;;;;;19.49;64.29;100593.94;4972534;28;20050;-62
2022/06/01 02:26:24;;;;;;;17.35;8.30;;;;;;;19.52;63.88;100598.69;4978493;28;20046;-63
2022/06/01 02:29:16;;;;;;;14.65;7.75;;;;;;;19.48;64.21;100597.84;4960565;28;20042;-62
2022/06/01 02:32:05;;;;;;;28.38;8.93;;;;;;;19.48;64.21;100605.34;4956301;28;20062;-63
2022/06/01 02:34:53;;;;;;;17.98;8.60;;;;;;;19.43;64.49;100592.66;4972725;28;20061;-63
2022/06/01 02:37:41;;;;;;;17.98;9.45;;;;;;;19.51;64.05;100586.06;4975685;28;20517;-63
2022/06/01 02:40:28;;;;;;;18.30;9.20;;;;;;;19.47;64.25;100587.97;4970863;28;20054;-62
2022/06/01 02:43:14;;;;;;;18.05;8.80;;;;;;;19.57;64.14;100587.28;4966612;28;20046;-62
2022/06/01 02:45:58;;;;;;;17.60;9.65;;;;;;;19.62;63.72;100589.72;4971657;28;20054;-61
2022/06/01 02:48:45;;;;;;;13.80;8.02;;;;;;;19.55;64.05;100594.38;4973431;28;20045;-63
2022/06/01 02:51:30;;;;;;;12.52;9.27;;;;;;;19.36;64.60;100578.78;4973153;28;20049;-64
2022/06/01 02:54:15;;;;;;;18.35;9.55;;;;;;;19.34;64.85;100583.88;4972650;28;20055;-63
2022/06/01 02:57:00;;;;;;;11.35;8.68;;;;;;;19.32;64.58;100588.97;4972192;28;20058;-64
2022/06/01 02:59:45;;;;;;;;;;;;;;;19.35;64.11;100588.22;4972760;28;20046;-63
2022/06/01 03:02:30;;;;;;;14.52;8.90;;;;;;;19.29;64.81;100589.75;4972124;28;19914;-63
2022/06/01 03:05:17;;;;;;;17.67;9.43;;;;;;;19.30;65.26;100587.78;4972980;28;20042;-63
2022/06/01 03:08:03;;;;;;;17.63;9.10;;;;;;;19.24;65.47;100590.06;4969419;28;20077;-63
2022/06/01 03:10:49;;;;;;;19.40;9.98;;;;;;;19.22;65.44;100589.66;4970096;28;20045;-63
2022/06/01 03:13:35;;;;;;;16.45;9.95;;;;;;;19.31;65.02;100590.13;4971942;28;20529;-63
2022/06/01 03:16:21;;;;;;;27.13;9.43;;;;;;;19.31;64.70;100595.66;4971484;28;20061;-63
2022/06/01 03:19:06;;;;;;;20.95;8.60;;;;;;;19.33;64.87;100603.56;4968302;28;20403;-63
2022/06/01 03:21:52;;;;;;;14.70;8.45;;;;;;;19.34;65.02;100596.88;4964090;28;20066;-63
2022/06/01 03:24:36;;;;;;;17.80;8.25;;;;;;;19.28;65.20;100599.19;4971579;28;20054;-63
2022/06/01 03:27:21;;;;;;;15.43;9.25;;;;;;;19.21;65.30;100597.13;4971991;28;20061;-63
2022/06/01 03:30:10;;;;;;;13.52;8.43;;;;;;;19.32;65.25;100607.47;4968850;28;20062;-63
2022/06/01 03:32:57;;;;;;;14.50;9.23;;;;;;;19.30;65.07;100599.56;4970751;28;20540;-63
2022/06/01 03:35:42;;;;;;;14.20;8.80;;;;;;;19.16;65.39;100604.94;4971216;28;20039;-63
2022/06/01 03:38:28;;;;;;;13.32;9.00;;;;;;;19.13;65.70;100609.25;4971791;28;20414;-63
2022/06/01 03:41:12;;;;;;;19.88;10.20;;;;;;;19.10;64.97;100611.94;4971291;28;20046;-63
2022/06/01 03:47:17;;;;;;;15.93;9.50;;;;;;;18.98;65.92;100617.72;4967682;28;19914;-63
2022/06/01 03:50:03;;;;;;;;;;;;;;;18.60;66.72;100630.56;4972745;28;20390;-64
2022/06/01 03:52:47;;;;;;;;;;;;;;;18.37;68.35;100625.09;4967795;28;19914;-64
2022/06/01 03:55:34;;;;;;;22.23;9.82;;;;;;;18.07;70.05;100631.66;4971568;28;19914;-64
2022/06/01 03:58:22;;;;;;;19.00;10.77;;;;;;;18.12;69.79;100623.91;4971026;28;20041;-63
2022/06/01 04:01:07;;;;;;;21.85;10.85;;;;;;;18.03;69.88;100630.81;4971517;28;20043;-64
2022/06/01 04:03:52;;;;;;;;;;;;;;;18.04;70.12;100632.38;4964606;28;20046;-63
2022/06/01 04:06:37;;;;;;;14.07;10.50;;;;;;;17.85;71.15;100628.53;4971318;28;19926;-64
2022/06/01 04:09:24;;;;;;;13.55;10.55;;;;;;;17.92;71.18;100642.44;4964152;28;20050;-63
2022/06/01 04:12:09;;;;;;;18.20;11.88;;;;;;;17.62;72.26;100646.97;4970976;28;20042;-64
2022/06/01 04:14:54;;;;;;;;;;;;;;;17.62;72.62;100638.72;4969954;28;20469;-64
2022/06/01 04:17:39;;;;;;;21.02;10.93;;;;;;;17.72;72.27;100646.38;4971634;28;19922;-64
2022/06/01 04:20:24;;;;;;;;;;;;;;;17.91;71.40;100648.28;4971527;28;20038;-64
2022/06/01 04:23:08;;;;;;;18.10;11.45;;;;;;;17.91;71.69;100651.84;4971055;28;19918;-64
2022/06/01 04:25:53;;;;;;;18.42;11.23;;;;;;;17.98;70.97;100645.66;4964304;28;20047;-64
2022/06/01 04:28:38;;;;;;;;;;;;;;;18.21;70.55;100653.91;4968709;28;20043;-64
2022/06/01 04:31:23;;;;;;;16.73;10.85;;;;;;;18.30;70.06;100657.22;4970513;28;19918;-64
2022/06/01 04:34:08;;;;;;;19.27;11.98;;;;;;;18.44;69.66;100662.16;4971026;28;20046;-64
2022/06/01 04:36:54;;;;;;;28.50;10.65;;;;;;;18.72;68.71;100663.41;4970787;28;20038;-64
2022/06/01 04:39:39;;;;;;;21.08;10.68;;;;;;;18.78;68.64;100664.69;4971594;28;20082;-66
2022/06/01 04:42:24;;;;;;;;;;;;;;;18.94;67.84;100666.47;4976163;28;20051;-66
2022/06/01 04:45:13;;;;;;;16.23;11.32;;;;;;;18.99;67.75;100671.66;4970739;28;19918;-66
2022/06/01 04:47:58;;;;;;;17.83;10.30;;;;;;;18.84;69.04;100667.13;4974579;28;20121;-66
2022/06/01 04:50:44;;;;;;;14.52;10.27;;;;;;;18.77;69.46;100670.56;4974986;28;20030;-66
2022/06/01 04:53:29;;;;;;;20.48;11.23;;;;;;;18.98;68.98;100670.88;4972359;28;20042;-66
2022/06/01 04:56:14;;;;;;;19.15;11.27;;;;;;;19.12;68.36;100675.78;4974332;28;20035;-66
2022/06/01 04:58:59;;;;;;;19.98;11.35;;;;;;;19.30;67.97;100682.28;4970183;28;20622;-66
2022/06/01 05:01:45;;;;;;;18.48;10.65;;;;;;;19.40;67.65;100684.41;4975134;28;20035;-65
2022/06/01 05:04:30;;;;;;;20.85;11.27;;;;;;;19.68;67.12;100688.69;4972222;28;20406;-66
2022/06/01 05:07:15;;;;;;;16.50;9.50;;;;;;;19.96;65.65;100689.00;4976699;28;20035;-65
2022/06/01 05:09:59;;;;;;;;;;;;;;;20.23;64.61;100692.41;4969972;28;20050;-65
2022/06/01 05:12:44;;;;;;;17.13;11.07;;;;;;;20.43;63.85;100683.53;4971355;28;19914;-65
2022/06/01 05:15:30;;;;;;;16.27;10.57;;;;;;;20.66;63.02;100691.63;4975444;28;20031;-67
2022/06/01 05:18:16;;;;;;;16.63;10.07;;;;;;;20.85;62.70;100694.13;4974584;28;20046;-65
2022/06/01 05:21:01;;;;;;;16.10;10.02;;;;;;;20.93;62.35;100692.19;4973105;28;20039;-66
2022/06/01 05:23:46;;;;;;;27.67;11.10;;;;;;;21.06;61.63;100696.22;4974893;28;20070;-66
2022/06/01 05:26:31;;;;;;;24.00;10.75;;;;;;;21.09;61.52;100700.16;4968001;28;20043;-66
2022/06/01 05:29:16;;;;;;;16.40;11.20;;;;;;;21.07;61.32;100700.56;4973953;28;20498;-65
2022/06/01 05:32:01;;;;;;;20.52;9.93;;;;;;;21.11;61.22;100706.13;4965452;28;20783;-65
2022/06/01 05:34:46;;;;;;;21.00;10.40;;;;;;;21.15;61.10;100707.75;4973688;28;20038;-65
2022/06/01 05:37:31;;;;;;;29.45;10.48;;;;;;;21.22;61.17;100716.09;4974382;28;20502;-65
2022/06/01 05:40:16;;;;;;;21.92;11.95;;;;;;;21.12;62.11;100714.03;4974151;28;20418;-65
2022/06/01 05:43:08;;;;;;;19.60;13.73;;;;;;;21.16;62.46;100719.59;4962515;28;20429;-65
2022/06/01 05:45:52;;;;;;;23.60;12.88;;;;;;;21.05;62.57;100711.22;4973321;28;20047;-65
2022/06/01 05:48:37;;;;;;;26.02;13.10;;;;;;;20.98;63.41;100719.47;4974078;28;20043;-65
2022/06/01 05:51:23;;;;;;;24.25;13.60;;;;;;;21.04;63.31;100725.41;4973533;28;20046;-65
2022/06/01 05:54:08;;;;;;;22.85;12.20;;;;;;;21.09;62.85;100730.59;4972855;28;20039;-65
2022/06/01 05:56:52;;;;;;;26.40;13.60;;;;;;;21.10;63.36;100727.44;4951312;29;20047;-64
2022/06/01 05:59:38;;;;;;;24.33;15.80;;;;;;;21.20;64.43;100732.28;4973488;28;20050;-65
2022/06/01 06:02:23;;;;;;;20.98;13.30;;;;;;;21.13;63.66;100723.91;4973745;28;20043;-65
2022/06/01 06:08:14;;;;;;;25.10;15.43;;;;;;;21.30;63.83;100737.06;4962068;28;20039;-65
2022/06/01 06:10:59;;;;;;;23.75;13.38;;;;;;;21.39;62.32;100738.69;4973918;28;20047;-65
2022/06/01 06:13:46;;;;;;;18.67;11.35;;;;;;;21.52;61.65;100737.19;4973740;28;20047;-64
2022/06/01 06:16:35;;;;;;;22.45;14.30;;;;;;;21.55;62.80;100742.72;4973825;28;20034;-64
2022/06/01 06:19:21;;;;;;;39.53;15.32;;;;;;;21.53;62.89;100744.31;4973730;28;20510;-65
2022/06/01 06:22:06;;;;;;;26.30;14.20;;;;;;;21.55;62.01;100744.69;4971578;28;20046;-65
2022/06/01 06:24:51;;;;;;;28.98;15.80;;;;;;;21.61;61.58;100745.91;4966794;28;20043;-64
2022/06/01 06:27:36;;;;;;;21.08;13.23;;;;;;;21.70;61.55;100749.91;4973406;28;20042;-64
2022/06/01 06:30:21;;;;;;;26.67;14.90;;;;;;;21.77;61.51;100747.16;4973574;28;20407;-64
2022/06/01 06:33:07;;;;;;;28.48;16.45;;;;;;;21.85;63.07;100761.03;4971955;28;20047;-64
2022/06/01 06:35:57;;;;;;;23.30;16.17;;;;;;;21.82;62.48;100759.03;4973172;28;20035;-64
2022/06/01 06:38:42;;;;;;;24.58;13.20;;;;;;;21.95;61.36;100761.09;4965166;28;20414;-64
2022/06/01 06:41:27;;;;;;;22.85;14.38;;;;;;;21.99;60.94;100764.66;4973296;28;20047;-64
2022/06/01 06:44:12;;;;;;;33.85;18.25;;;;;;;22.07;62.79;100757.16;4973219;28;20043;-64
2022/06/01 06:46:58;;;;;;;26.75;13.35;;;;;;;22.08;61.73;100765.09;4973031;28;20306;-64
2022/06/01 06:49:43;;;;;;;25.75;14.02;;;;;;;22.12;61.13;100765.91;4973172;28;20042;-64
2022/06/01 06:52:28;;;;;;;47.17;19.08;;;;;;;22.09;63.75;100761.16;4973202;28;20038;-64
2022/06/01 06:55:14;;;;;;;38.03;19.65;;;;;;;22.08;64.24;100762.31;4972829;28;20030;-64
2022/06/01 06:57:59;;;;;;;34.25;19.73;;;;;;;22.01;64.80;100759.53;4967465;28;20039;-64
2022/06/01 07:00:45;;;;;;;37.15;19.15;;;;;;;22.06;63.72;100761.91;4972876;28;20034;-64
2022/06/01 07:03:30;;;;;;;31.55;18.88;;;;;;;22.04;64.90;100764.31;4972945;28;20054;-64
2022/06/01 07:06:17;;;;;;;27.55;19.80;;;;;;;22.08;65.34;100769.84;4971739;28;20047;-64
2022/06/01 07:09:03;;;;;;;27.33;16.48;;;;;;;22.12;64.62;100767.88;4959497;28;20039;-64
2022/06/01 07:11:48;;;;;;;33.42;19.52;;;;;;;22.13;65.10;100767.47;4957757;28;20043;-64
2022/06/01 07:14:33;;;;;;;33.90;17.77;;;;;;;22.22;64.22;100763.53;4979086;28;20046;-64
2022/06/01 07:17:18;;;;;;;25.77;17.80;;;;;;;22.35;63.71;100767.53;4972612;28;20038;-64
2022/06/01 07:20:03;;;;;;;28.25;16.90;;;;;;;22.41;63.08;100763.16;4972911;28;20039;-64
2022/06/01 07:22:48;;;;;;;33.13;17.85;;;;;;;22.47;63.33;100770.69;4965547;28;20432;-64
2022/06/01 07:25:33;;;;;;;29.55;17.33;;;;;;;22.48;63.03;100769.50;4972291;28;20403;-64
2022/06/01 07:28:21;;;;;;;28.67;19.42;;;;;;;22.50;63.51;100774.69;4972848;28;20043;-64
2022/06/01 07:31:07;;;;;;;27.65;16.67;;;;;;;22.53;62.56;100773.88;4972483;28;20038;-64
2022/06/01 07:33:52;;;;;;;27.60;18.85;;;;;;;22.61;62.44;100769.91;4972450;28;20042;-64
2022/06/01 07:36:36;;;;;;;26.42;15.20;;;;;;;22.64;60.99;100779.44;4972428;28;20047;-64
2022/06/01 07:45:31;;;;;;;30.83;20.60;;;;;;;22.85;61.88;100785.00;4972213;28;20043;-65
2022/06/01 07:48:19;;;;;;;24.02;16.60;;;;;;;22.94;60.83;100779.84;4972391;28;20414;-64
2022/06/01 07:51:06;;;;;;;30.75;20.10;;;;;;;23.08;60.82;100781.81;4959296;28;20034;-65
2022/06/01 07:53:52;;;;;;;30.40;16.20;;;;;;;23.06;60.13;100784.97;4969639;28;20043;-64
2022/06/01 07:56:37;;;;;;;41.05;18.60;;;;;;;23.00;60.63;100792.13;4972066;28;20039;-64
2022/06/01 07:59:22;;;;;;;35.47;19.15;;;;;;;23.00;61.44;100790.16;4972350;28;20495;-65
2022/06/01 08:02:09;;;;;;;28.08;19.73;;;;;;;23.16;60.86;100798.03;4971817;28;20478;-64
2022/06/01 08:04:55;;;;;;;49.50;19.75;;;;;;;23.21;60.92;100800.41;4966077;28;20038;-64
2022/06/01 08:07:42;;;;;;;32.25;18.67;;;;;;;23.25;59.79;100797.66;4971867;28;20054;-64
2022/06/01 08:10:27;;;;;;;26.58;18.88;;;;;;;23.21;60.95;100788.53;4972005;28;20058;-64
2022/06/01 08:13:15;;;;;;;33.85;19.30;;;;;;;23.44;59.94;100786.09;4972108;28;20042;-64
2022/06/01 08:16:02;;;;;;;26.55;18.75;;;;;;;23.33;60.45;100794.44;4971858;28;20035;-65
2022/06/01 08:18:48;;;;;;;41.83;21.95;;;;;;;23.49;60.38;100793.25;4968647;28;20035;-65
2022/06/01 08:21:35;;;;;;;29.65;17.60;;;;;;;23.58;58.84;100782.50;4975881;28;20042;-64
2022/06/01 08:24:20;;;;;;;23.58;18.50;;;;;;;23.63;58.28;100788.44;4975484;28;20038;-64
2022/06/01 08:27:06;;;;;;;26.35;18.45;;;;;;;23.68;56.59;100782.47;4975325;28;20042;-64
2022/06/01 08:29:51;;;;;;;39.70;21.33;;;;;;;23.80;56.70;100781.25;4960825;28;20046;-64
2022/06/01 08:32:37;;;;;;;29.02;17.30;;;;;;;23.81;56.52;100775.28;4973218;28;20043;-64
2022/06/01 08:35:26;;;;;;;30.52;18.67;;;;;;;23.99;56.81;100785.50;4975474;28;20039;-65
2022/06/01 08:38:12;;;;;;;31.58;18.52;;;;;;;24.04;57.17;100785.09;4975256;28;20402;-64
2022/06/01 08:41:12;;;;;;;25.48;18.50;;;;;;;24.27;56.28;100788.97;4969708;28;20043;-64
2022/06/01 08:44:01;;;;;;;28.17;18.95;;;;;;;24.41;55.03;100796.41;4974397;28;20042;-64
2022/06/01 08:46:46;;;;;;;39.28;17.10;;;;;;;24.25;54.56;100790.56;4975113;28;20050;-65
2022/06/01 08:49:33;;;;;;;33.15;17.83;;;;;;;24.30;54.23;100801.25;4974906;28;20034;-64
2022/06/01 08:52:22;;;;;;;26.58;17.75;;;;;;;24.37;54.18;100795.66;4975448;28;20038;-65
2022/06/01 08:55:07;;;;;;;27.55;18.35;;;;;;;24.40;54.19;100792.03;4971210;28;20038;-65
2022/06/01 08:58:01;;;;;;;23.33;13.43;;;;;;;24.36;53.07;100791.28;4971395;28;20042;-65
2022/06/01 09:01:01;;;;;;;26.17;15.57;;;;;;;24.34;53.39;100782.56;4975047;28;20043;-65
2022/06/01 09:04:07;;;;;;;38.50;17.02;;;;;;;24.20;54.36;100791.00;4974887;28;20248;-65
2022/06/01 09:07:28;;;;;;;21.45;13.27;;;;;;;24.09;53.02;100793.78;4970320;28;20035;-65
2022/06/01 09:10:45;;;;;;;27.27;18.20;;;;;;;24.39;55.82;100793.25;4970837;28;20042;-65
2022/06/01 09:13:58;;;;;;;23.85;15.15;;;;;;;24.72;53.36;100786.25;4974757;28;20410;-65
2022/06/01 09:16:46;;;;;;;25.13;14.70;;;;;;;24.82;52.49;100788.16;4966981;28;20035;-65
2022/06/01 09:22:39;;;;;;;24.38;13.57;;;;;;;24.80;52.30;100792.53;4974648;28;20042;-64
2022/06/01 09:25:34;;;;;;;21.58;12.63;;;;;;;24.50;51.91;100785.63;4974135;28;20038;-65
2022/06/01 09:28:25;;;;;;;26.88;15.20;;;;;;;24.64;52.48;100793.06;4973373;28;20046;-65
2022/06/01 09:31:41;;;;;;;18.35;13.60;;;;;;;24.60;52.69;100784.75;4974663;28;20391;-65
2022/06/01 09:34:30;;;;;;;20.90;12.13;;;;;;;24.64;51.85;100782.72;4974537;28;20042;-65
2022/06/01 09:37:31;;;;;;;22.35;12.45;;;;;;;24.65;52.01;100789.88;4975152;28;20038;-65
2022/06/01 09:40:28;;;;;;;22.63;12.25;;;;;;;24.63;51.75;100786.72;4974322;28;20042;-65
2022/06/01 09:43:25;;;;;;;25.33;14.65;;;;;;;24.51;52.39;100783.63;4970257;28;20035;-65
2022/06/01 09:46:35;;;;;;;28.48;17.90;;;;;;;24.68;52.92;100777.16;4973640;28;20043;-65
2022/06/01 09:49:27;;;;;;;19.73;12.57;;;;;;;24.40;51.86;100780.13;4973893;28;20038;-65
2022/06/01 09:52:24;;;;;;;17.15;10.60;;;;;;;24.27;52.40;100779.84;4974176;28;20047;-65
2022/06/01 09:55:19;;;;;;;17.05;9.95;;;;;;;24.26;51.90;100789.38;4973899;28;20046;-65
2022/06/01 09:58:12;;;;;;;16.13;9.85;;;;;;;24.08;52.25;100786.66;4968883;28;20418;-64
2022/06/01 10:07:07;;;;;;;24.80;11.03;;;;;;;24.54;51.43;100791.94;4968249;28;20034;-65
2022/06/01 10:09:55;;;;;;;29.75;14.80;;;;;;;24.64;50.48;100788.28;4972633;28;20038;-65
2022/06/01 10:12:50;;;;;;;19.08;12.05;;;;;;;25.09;48.68;100786.34;4971147;28;20039;-64
2022/06/01 10:15:45;;;;;;;20.30;13.02;;;;;;;25.02;49.03;100791.19;4971300;28;20050;-64
2022/06/01 10:18:32;;;;;;;16.30;10.95;;;;;;;25.19;48.23;100790.25;4969390;28;20039;-64
2022/06/01 10:21:24;;;;;;;20.77;12.25;;;;;;;24.95;48.71;100788.47;4970771;28;20042;-65
2022/06/01 10:24:14;;;;;;;17.38;11.25;;;;;;;24.84;49.22;100782.19;4970255;28;20038;-64
2022/06/01 10:27:00;;;;;;;17.92;10.82;;;;;;;24.64;49.83;100784.72;4972363;28;20507;-64
2022/06/01 10:29:51;;;;;;;15.63;10.68;;;;;;;24.70;50.17;100778.31;4968149;28;20038;-64
2022/06/01 10:33:08;;;;;;;20.88;13.43;;;;;;;25.09;49.96;100788.34;4972027;28;20054;-64
2022/06/01 10:36:03;;;;;;;28.77;15.68;;;;;;;25.41;49.90;100783.22;4963886;28;20035;-64
2022/06/01 10:39:01;;;;;;;23.10;10.80;;;;;;;25.02;49.44;100780.06;4970584;28;20046;-65
2022/06/01 10:45:43;;;;;;;15.77;9.43;;;;;;;24.86;50.62;100774.22;4970808;28;20046;-65
2022/06/01 10:48:29;;;;;;;19.92;9.60;;;;;;;24.62;50.25;100774.03;4967340;28;20418;-65
2022/06/01 10:51:22;;;;;;;18.35;9.50;;;;;;;24.56;50.35;100774.88;4973221;28;20514;-65
2022/06/01 10:54:41;;;;;;;18.00;8.95;;;;;;;24.60;50.75;100776.41;4966556;28;20119;-64
2022/06/01 10:57:26;;;;;;;23.00;12.50;;;;;;;24.77;49.42;100771.91;4970482;28;20058;-65
2022/06/01 11:00:15;;;;;;;17.75;9.55;;;;;;;24.78;49.86;100767.16;4968958;28;20498;-65
2022/06/01 11:03:13;;;;;;;21.52;11.60;;;;;;;25.07;49.40;100762.91;4963929;28;20046;-64
2022/06/01 11:06:35;;;;;;;14.43;9.98;;;;;;;25.25;47.69;100768.28;4963299;28;20062;-65
2022/06/01 11:09:45;;;;;;;16.63;9.15;;;;;;;24.88;48.55;100769.06;4967184;28;20069;-64
2022/06/01 11:13:03;;;;;;;18.98;9.82;;;;;;;24.83;49.04;100761.94;4969662;28;20050;-64
2022/06/01 11:16:06;;;;;;;12.93;7.85;;;;;;;24.51;49.73;100762.19;4968151;28;20403;-64
2022/06/01 11:19:01;;;;;;;19.13;9.80;;;;;;;24.47;50.29;100769.78;4965521;28;20521;-64
2022/06/01 11:22:11;;;;;;;19.73;9.10;;;;;;;24.57;49.80;100773.66;4970671;28;20053;-64
2022/06/01 11:25:12;;;;;;;18.20;9.98;;;;;;;24.60;49.71;100764.50;4972353;28;20049;-65
2022/06/01 11:28:27;;;;;;;18.67;8.82;;;;;;;24.70;49.53;100764.41;4966531;28;20046;-65
2022/06/01 11:31:18;;;;;;;12.57;8.15;;;;;;;24.59;49.45;100757.34;4965167;28;20058;-64
2022/06/01 11:34:20;;;;;;;13.75;8.07;;;;;;;24.60;49.06;100747.81;4970315;28;20054;-65
2022/06/01 11:37:18;;;;;;;15.45;9.90;;;;;;;24.82;48.58;100748.41;4961678;28;20057;-64
2022/06/01 11:40:07;;;;;;;18.33;10.02;;;;;;;24.97;46.33;100742.34;4986617;28;20046;-64
2022/06/01 11:43:00;;;;;;;12.30;8.48;;;;;;;24.87;47.84;100747.97;4968328;28;20039;-65
2022/06/01 11:45:53;;;;;;;10.52;7.53;;;;;;;25.00;47.58;100737.94;4967975;28;20514;-64
2022/06/01 11:48:44;;;;;;;13.93;9.02;;;;;;;24.84;47.53;100743.25;4966752;28;20425;-65
2022/06/01 11:51:36;;;;;;;20.67;9.02;;;;;;;25.03;46.40;100737.13;4965428;28;20054;-65
2022/06/01 11:54:34;;;;;;;15.15;8.00;;;;;;;25.16;46.64;100734.59;4969763;28;20042;-65
2022/06/01 11:57:25;;;;;;;21.45;10.43;;;;;;;25.08;46.67;100737.47;4971888;28;20506;-64
2022/06/01 12:00:16;;;;;;;11.98;7.05;;;;;;;24.59;47.76;100738.66;4975225;28;20031;-65
2022/06/01 12:03:39;;;;;;;15.13;9.80;;;;;;;24.58;48.37;100734.31;4964911;28;20050;-64
2022/06/01 12:06:40;;;;;;;23.17;11.90;;;;;;;24.63;47.90;100742.25;4970030;28;20047;-64
2022/06/01 12:09:41;;;;;;;12.23;6.95;;;;;;;24.79;47.99;100738.13;4972878;28;20499;-65
2022/06/01 12:12:32;;;;;;;19.42;8.10;;;;;;;24.71;48.20;100738.19;4970853;28;20054;-64
2022/06/01 12:15:42;;;;;;;16.70;9.73;;;;;;;25.35;47.05;100731.97;4974975;28;20065;-64
2022/06/01 12:18:29;;;;;;;19.80;9.98;;;;;;;25.49;46.11;100726.25;4972359;28;20050;-64
2022/06/01 12:21:34;;;;;;;16.38;8.05;;;;;;;25.06;47.03;100719.59;4968355;28;20410;-65
2022/06/01 12:30:47;;;;;;;19.35;10.05;;;;;;;25.34;46.58;100724.84;4967706;28;20062;-65
2022/06/01 12:33:33;;;;;;;15.38;9.48;;;;;;;25.44;46.50;100712.81;4969832;28;20110;-65
2022/06/01 12:36:18;;;;;;;16.42;10.10;;;;;;;25.66;45.98;100718.09;4968118;28;20039;-64
2022/06/01 12:39:11;;;;;;;18.13;9.82;;;;;;;25.76;45.32;100717.19;4967283;28;20039;-64
2022/06/01 12:42:14;;;;;;;13.20;8.10;;;;;;;25.66;45.13;100704.19;4970895;28;20041;-64
2022/06/01 12:45:03;;;;;;;19.23;8.35;;;;;;;25.69;45.76;100709.72;4968116;28;20302;-64
2022/06/01 12:48:09;;;;;;;15.98;8.32;;;;;;;25.31;46.38;100708.16;4964520;28;20046;-64
2022/06/01 12:50:59;;;;;;;23.65;8.10;;;;;;;25.58;45.98;100711.06;4973342;28;20399;-64
2022/06/01 12:53:53;;;;;;;13.98;9.02;;;;;;;25.71;45.32;100718.44;4972667;28;20505;-64
2022/06/01 12:56:48;;;;;;;13.25;7.85;;;;;;;25.61;45.74;100721.34;4970002;28;20061;-64
2022/06/01 12:59:38;;;;;;;11.90;7.55;;;;;;;25.63;45.12;100716.97;4976612;28;20049;-64
2022/06/01 13:02:23;;;;;;;17.45;7.88;;;;;;;25.38;46.09;100710.88;4967317;28;20049;-64
2022/06/01 13:05:12;;;;;;;14.13;6.80;;;;;;;25.22;46.40;100708.69;4969335;28;20042;-65
2022/06/01 13:07:59;;;;;;;16.92;6.47;;;;;;;24.82;46.95;100712.25;4966039;28;20518;-64
2022/06/01 13:10:44;;;;;;;15.82;6.63;;;;;;;24.69;48.27;100703.63;4971177;28;20046;-64
2022/06/01 13:13:30;;;;;;;12.48;6.50;;;;;;;24.56;48.41;100710.91;4966941;28;20062;-65
2022/06/01 13:16:21;;;;;;;77.00;17.25;;;;;;;24.46;49.19;100698.69;4967796;28;20054;-68
2022/06/01 13:19:28;;;;;;;41.25;11.32;;;;;;;24.47;48.74;100694.69;4967201;28;20039;-67
2022/06/01 13:22:22;;;;;;;26.15;11.60;;;;;;;24.65;48.40;100684.19;4969672;28;20034;-68
2022/06/01 13:25:17;;;;;;;43.20;10.90;;;;;;;24.78;48.16;100686.47;4972060;28;20038;-68
2022/06/01 13:28:03;;;;;;;18.45;8.63;;;;;;;24.97;47.30;100677.56;4969295;28;20043;-66
2022/06/01 13:30:49;;;;;;;19.70;9.50;;;;;;;25.39;46.73;100679.06;4974398;28;20046;-67
2022/06/01 13:33:41;;;;;;;14.63;8.10;;;;;;;25.42;46.64;100672.63;4974286;28;20265;-65